Etusivu
METAR-TAF:

METAR-TAF

Lentoasemat :

Gafsa, Tunisia

Leveyspiiri: 34-25N, Pituuspiiri: 008-49E, korkeus merenpinnasta: 313 m

Tämänhetkinen sää

Tämä raportti tehtiin 56 minuuttia sitten, kello 12.00 UTC
Tuuli 11 kn etelästä, vaihdellen idän/kaakon ja etelän/lounaan välillä
Lämpötila 34°C
Kosteus 30%
Ilmanpaine 1016 hPa
Näkyvyys 10 km tai enemmän
ei pilviä alle 1500 m:ssä eikä cumulonimbus-pilviä

METAR: DTTF 281200Z 17011KT 120V210 CAVOK 34/14 Q1016 NOSIG

Aika: 13:56 (12:56 UTC)

Sääennuste

Tämä raportti tehtiin 56 minuuttia sitten, kello 12.00 UTC
Ennuste voimassa 28. päivästä klo 13 UTC - 28. päivään klo 22 UTC
Tuuli 11 kn etelästä
Näkyvyys 10 km tai enemmän
ei pilviä alle 1500 m:ssä eikä cumulonimbus-pilviä
Tulossa
28. päivästä klo 19 UTC - 28. päivään klo 21 UTC
Tuuli 3 kn eri suunnista

TAF: DTTF 281200Z 2813/2822 17011KT CAVOK BECMG 2819/2821 VRB03KT

Säähavainnot ja -ennusteet yli 4000 lentoasemalta (METAR- ja TAF-raportit).

Käytössä olevat sääasemat on merkitty karttaan keltaisilla ja punaisilla pisteillä.

Aseta hiiri pisteen päälle nähdäksesi sääaseman nimen.

Klikkaa sitten nähdäksesi säähavainnot ja -ennusteet.

Kartan vaihtaminen: klikkaa mustalla rastilla varustettuja vihreitä pisteitä, niin voit zoomata sisään; viivalla varustettua vihreää pistettä, niin voit zoomata ulos tai vihreitä nuolia, niin pääset viereisille kartoille.


METAR-TAF: